Time;durP1;ratioP1;P1;durP2;ratioP2;P2;SDS_P1;SDS_P2;PMS_P1;PMS_P2;Temp;Humidity;BMP_temperature;BMP_pressure;BME280_temperature;BME280_humidity;BME280_pressure;Samples;Min_cycle;Max_cycle;Signal;HPM_P1;HPM_P2
2023/06/12 00:00:37;;;;;;;;;10.00;10.00;;;;;18.42;79.98;99077.84;6252126;28;96294;-66
2023/06/12 00:03:43;;;;;;;;;8.00;7.00;;;;;18.43;79.70;99078.69;6251535;28;98404;-64
2023/06/12 00:06:47;;;;;;;;;10.00;10.00;;;;;18.42;80.25;99075.13;6251239;28;98416;-64
2023/06/12 00:09:51;;;;;;;;;11.00;10.00;;;;;18.37;80.40;99077.88;6253172;27;96464;-65
2023/06/12 00:12:55;;;;;;;;;10.20;10.20;;;;;18.33;80.91;99067.72;6253762;27;96185;-64
2023/06/12 00:15:58;;;;;;;;;8.00;7.80;;;;;18.33;81.10;99065.00;6253430;27;96440;-64
2023/06/12 00:19:03;;;;;;;;;12.00;11.00;;;;;18.30;81.37;99066.38;6254361;28;96271;-66
2023/06/12 00:22:06;;;;;;;;;8.00;8.00;;;;;18.26;81.47;99064.44;6253961;28;96740;-64
2023/06/12 00:25:10;;;;;;;;;10.00;10.00;;;;;18.18;81.94;99063.03;6254551;27;96267;-66
2023/06/12 00:28:13;;;;;;;;;11.00;10.00;;;;;18.11;82.38;99060.56;6237051;28;97017;-66
2023/06/12 00:31:17;;;;;;;;;10.40;10.00;;;;;18.08;82.71;99063.81;6253183;28;98536;-64
2023/06/12 00:34:22;;;;;;;;;9.80;9.80;;;;;18.05;82.47;99066.25;6253415;28;96448;-65
2023/06/12 00:37:27;;;;;;;;;9.00;9.00;;;;;17.85;84.22;99045.16;6252271;28;96582;-65
2023/06/12 00:40:31;;;;;;;;;10.00;9.00;;;;;17.99;83.09;99059.13;6237387;28;96689;-64
2023/06/12 00:43:34;;;;;;;;;9.00;9.00;;;;;17.92;83.58;99067.56;6253411;28;96253;-64
2023/06/12 00:46:38;;;;;;;;;11.00;11.00;;;;;17.89;83.74;99075.44;6236510;28;96549;-65
2023/06/12 00:49:43;;;;;;;;;11.00;10.00;;;;;17.81;83.24;99060.41;6252739;28;98208;-65
2023/06/12 00:52:48;;;;;;;;;11.00;11.00;;;;;17.84;83.49;99072.72;6254926;27;96273;-64
2023/06/12 00:55:52;;;;;;;;;9.40;8.40;;;;;17.78;83.71;99060.13;6254051;27;96040;-65
2023/06/12 00:58:55;;;;;;;;;10.00;10.00;;;;;17.75;83.56;99059.56;6251597;28;97302;-66
2023/06/12 01:01:59;;;;;;;;;9.00;9.00;;;;;17.68;83.91;99066.34;6250901;28;98349;-65
2023/06/12 01:05:07;;;;;;;;;11.00;10.00;;;;;17.64;84.54;99052.41;6250243;28;96707;-65
2023/06/12 01:08:18;;;;;;;;;9.00;9.00;;;;;17.58;84.45;99067.06;6233956;28;98706;-64
2023/06/12 01:11:27;;;;;;;;;9.20;8.20;;;;;17.57;84.29;99057.25;6249838;28;96159;-65
2023/06/12 01:14:30;;;;;;;;;10.80;10.40;;;;;17.56;84.40;99057.50;6232995;28;96835;-65
2023/06/12 01:17:35;;;;;;;;;11.00;10.20;;;;;17.58;84.38;99064.34;6232571;28;98789;-65
2023/06/12 01:20:41;;;;;;;;;11.40;10.80;;;;;17.54;84.78;99063.22;6250019;28;97111;-65
2023/06/12 01:24:22;;;;;;;;;11.00;9.80;;;;;17.47;84.91;99059.06;6243922;28;97020;-64
2023/06/12 01:27:44;;;;;;;;;14.00;12.00;;;;;17.44;85.08;99059.59;6197572;28;99005;-65
2023/06/12 01:31:06;;;;;;;;;13.25;12.00;;;;;17.41;84.83;99060.13;6258076;27;96821;-64
2023/06/12 01:34:16;;;;;;;;;9.50;9.00;;;;;17.35;85.66;99061.19;6254642;28;96292;-65
2023/06/12 01:37:33;;;;;;;;;12.00;12.00;;;;;17.31;85.81;99064.41;6257357;28;96262;-65
2023/06/12 01:40:41;;;;;;;;;10.40;10.40;;;;;17.27;85.31;99067.91;6254608;28;96351;-65
2023/06/12 01:43:44;;;;;;;;;12.60;11.60;;;;;17.12;87.68;99073.25;6256681;27;96566;-65
2023/06/12 01:46:50;;;;;;;;;11.00;11.00;;;;;17.10;86.91;99076.25;6255035;28;96341;-64
2023/06/12 01:49:56;;;;;;;;;12.00;11.00;;;;;17.10;86.76;99075.41;6241224;28;96557;-65
2023/06/12 01:53:01;;;;;;;;;10.60;9.60;;;;;17.06;87.08;99074.25;6256629;28;96782;-64
2023/06/12 01:56:06;;;;;;;;;10.00;9.40;;;;;17.02;87.08;99078.59;6256335;28;96915;-66
2023/06/12 01:59:11;;;;;;;;;10.60;10.60;;;;;16.98;87.08;99074.75;6255952;27;96935;-67
2023/06/12 02:02:20;;;;;;;;;13.75;12.25;;;;;16.93;87.56;99077.44;6255248;28;96189;-64
2023/06/12 02:05:25;;;;;;;;;12.00;12.00;;;;;16.80;87.55;99052.28;6254331;28;98222;-64
2023/06/12 02:08:28;;;;;;;;;11.00;10.00;;;;;16.87;87.75;99068.38;6253922;28;96442;-64
2023/06/12 02:11:32;;;;;;;;;9.40;9.40;;;;;16.80;87.88;99068.63;6239504;28;98347;-64
2023/06/12 02:14:35;;;;;;;;;10.00;10.00;;;;;16.81;88.44;99070.22;6256507;27;96436;-65
2023/06/12 02:17:39;;;;;;;;;9.00;8.60;;;;;16.82;88.04;99074.59;6253114;28;96656;-65
2023/06/12 02:20:44;;;;;;;;;11.00;9.80;;;;;16.81;88.31;99072.16;6254300;28;96309;-64
2023/06/12 02:23:47;;;;;;;;;10.25;10.25;;;;;16.75;88.54;99076.72;6254162;28;96283;-64
2023/06/12 02:26:54;;;;;;;;;11.00;9.00;;;;;16.66;89.39;99085.63;6253203;28;96293;-64
2023/06/12 02:29:57;;;;;;;;;11.67;11.00;;;;;16.66;89.38;99081.00;6270114;27;96326;-66
2023/06/12 02:33:09;;;;;;;;;12.40;10.00;;;;;16.63;89.64;99089.66;6256860;28;96273;-65
2023/06/12 02:36:14;;;;;;;;;8.00;8.00;;;;;16.62;89.93;99087.19;6257409;27;96760;-65
2023/06/12 02:39:18;;;;;;;;;13.00;11.60;;;;;16.58;90.20;99086.03;6255259;28;97537;-66
2023/06/12 02:42:23;;;;;;;;;12.00;12.00;;;;;16.56;90.43;99104.53;6249405;28;96339;-66
2023/06/12 02:45:27;;;;;;;;;14.00;13.00;;;;;16.58;90.20;99096.91;6254949;28;96377;-65
2023/06/12 02:48:30;;;;;;;;;9.33;9.00;;;;;16.52;90.68;99098.75;6256108;28;98657;-65
2023/06/12 02:51:35;;;;;;;;;11.20;11.00;;;;;16.55;90.47;99090.09;6240278;28;98354;-65
2023/06/12 02:54:39;;;;;;;;;10.80;10.00;;;;;16.55;90.78;99102.88;6256688;28;96275;-64
2023/06/12 02:57:43;;;;;;;;;11.00;10.00;;;;;16.52;91.32;99103.41;6239505;28;98398;-66
2023/06/12 03:00:47;;;;;;;;;10.40;10.00;;;;;16.54;91.25;99112.09;6256302;28;96669;-65
2023/06/12 03:03:50;;;;;;;;;9.60;9.00;;;;;16.40;92.51;99106.25;6265837;27;96191;-65
2023/06/12 03:06:56;;;;;;;;;10.00;9.60;;;;;16.45;92.91;99107.13;6263577;27;96238;-63
2023/06/12 03:09:59;;;;;;;;;10.00;10.00;;;;;16.43;93.55;99106.53;6234081;28;96725;-65
2023/06/12 03:13:04;;;;;;;;;11.40;10.00;;;;;16.45;93.36;99104.41;6234998;28;96646;-64
2023/06/12 03:16:09;;;;;;;;;9.60;9.60;;;;;16.46;92.81;99113.41;6252583;28;96598;-65
2023/06/12 03:19:13;;;;;;;;;10.00;10.00;;;;;16.53;92.84;99119.44;6235781;28;98397;-65
2023/06/12 03:22:17;;;;;;;;;9.40;9.00;;;;;16.51;93.43;99126.25;6252588;28;96425;-64
2023/06/12 03:25:21;;;;;;;;;9.80;9.40;;;;;16.56;92.91;99126.28;6255521;27;96299;-66
2023/06/12 03:28:24;;;;;;;;;12.00;11.60;;;;;16.48;94.04;99127.56;6254171;27;98430;-65
2023/06/12 03:31:29;;;;;;;;;10.50;10.50;;;;;16.46;94.21;99136.00;6259370;27;96445;-65
2023/06/12 03:34:36;;;;;;;;;11.80;10.20;;;;;16.39;94.66;99131.81;6251858;28;96318;-65
2023/06/12 03:37:41;;;;;;;;;10.75;10.00;;;;;16.46;94.33;99121.56;6253833;28;96233;-65
2023/06/12 03:40:47;;;;;;;;;11.00;10.25;;;;;16.53;94.00;99130.34;6250221;27;96372;-64
2023/06/12 03:43:51;;;;;;;;;9.00;8.80;;;;;16.54;94.24;99128.44;6232210;28;98339;-65
2023/06/12 03:46:54;;;;;;;;;11.40;11.00;;;;;16.63;93.74;99116.88;6248765;28;96976;-64
2023/06/12 03:49:58;;;;;;;;;10.40;10.40;;;;;16.73;92.84;99125.16;6232699;27;96840;-66
2023/06/12 03:53:04;;;;;;;;;9.60;9.60;;;;;16.78;92.73;99110.78;6254009;27;96909;-66
2023/06/12 03:56:08;;;;;;;;;9.00;8.20;;;;;16.82;92.30;99115.44;6254727;27;96410;-65
2023/06/12 03:59:12;;;;;;;;;11.40;11.00;;;;;16.90;92.21;99122.34;6252563;27;96212;-66
2023/06/12 04:02:15;;;;;;;;;10.20;10.00;;;;;17.00;91.72;99119.72;6230455;28;96979;-66
2023/06/12 04:05:20;;;;;;;;;9.00;8.00;;;;;17.01;91.11;99136.88;6233532;28;96594;-66
2023/06/12 04:08:26;;;;;;;;;10.60;9.60;;;;;17.04;90.61;99126.31;6234322;28;96692;-65
2023/06/12 04:11:29;;;;;;;;;9.00;8.80;;;;;17.11;90.13;99131.53;6234628;27;98995;-65
2023/06/12 04:14:33;;;;;;;;;9.00;9.00;;;;;17.25;89.90;99127.31;6263477;27;96739;-65
2023/06/12 04:17:37;;;;;;;;;12.20;11.20;;;;;17.32;89.39;99133.34;6258167;27;96349;-64
2023/06/12 04:20:41;;;;;;;;;12.33;10.33;;;;;17.48;88.89;99137.03;6262029;27;97717;-66
2023/06/12 04:23:47;;;;;;;;;11.60;11.00;;;;;17.58;87.33;99132.50;6236433;28;96624;-66
2023/06/12 04:26:53;;;;;;;;;9.80;9.00;;;;;17.69;86.62;99117.06;6251648;27;96318;-67
2023/06/12 04:29:58;;;;;;;;;9.80;6.80;;;;;17.75;86.23;99141.38;6253626;27;96468;-66
2023/06/12 04:33:02;;;;;;;;;11.25;10.00;;;;;17.78;85.63;99134.59;6253139;27;96299;-66
2023/06/12 04:36:07;;;;;;;;;10.00;10.00;;;;;17.91;85.11;99133.28;6251128;28;96840;-65
2023/06/12 04:39:13;;;;;;;;;9.00;8.00;;;;;18.00;84.57;99137.16;6254674;27;98446;-66
2023/06/12 04:42:18;;;;;;;;;10.00;9.80;;;;;17.89;85.13;99143.63;6238858;27;96814;-66
2023/06/12 04:45:22;;;;;;;;;9.60;9.00;;;;;17.95;84.27;99134.41;6236771;28;96537;-65
2023/06/12 04:48:26;;;;;;;;;9.00;8.00;;;;;18.05;83.44;99135.28;6256275;28;96833;-66
2023/06/12 04:51:29;;;;;;;;;7.50;7.00;;;;;18.02;82.92;99138.56;6232388;27;96662;-66
2023/06/12 04:54:35;;;;;;;;;9.00;8.00;;;;;18.01;82.24;99142.38;6240869;28;96436;-66
2023/06/12 04:57:39;;;;;;;;;9.00;8.00;;;;;18.18;79.95;99145.72;6258234;28;96283;-66
2023/06/12 05:00:44;;;;;;;;;9.00;9.00;;;;;18.25;78.96;99139.22;6238800;28;97482;-65
2023/06/12 05:03:49;;;;;;;;;9.50;9.00;;;;;18.29;77.56;99143.88;6276056;27;96336;-65
2023/06/12 05:06:54;;;;;;;;;7.00;7.00;;;;;18.01;78.81;99131.44;6268678;27;96435;-65
2023/06/12 05:10:00;;;;;;;;;8.00;8.00;;;;;18.06;78.49;99134.22;6247655;27;97124;-65
2023/06/12 05:13:07;;;;;;;;;6.75;6.00;;;;;18.30;79.25;99139.25;6265180;27;96906;-66
2023/06/12 05:16:10;;;;;;;;;10.00;10.00;;;;;18.26;75.80;99129.94;6270671;27;96150;-66
2023/06/12 05:19:13;;;;;;;;;10.00;9.00;;;;;18.46;74.99;99141.78;6227607;27;97571;-68
2023/06/12 05:22:18;;;;;;;;;10.00;10.00;;;;;18.61;74.49;99138.31;6226528;27;97364;-69
2023/06/12 05:25:23;;;;;;;;;9.00;8.00;;;;;18.72;73.95;99131.78;6237190;27;96720;-69
2023/06/12 05:28:26;;;;;;;;;9.50;8.25;;;;;18.62;70.48;99141.88;6222161;27;96647;-68
2023/06/12 05:31:30;;;;;;;;;9.50;9.00;;;;;18.58;70.88;99145.13;6235892;27;97243;-68
2023/06/12 05:34:33;;;;;;;;;7.00;7.00;;;;;18.68;73.05;99149.81;6238516;27;96659;-68
2023/06/12 05:37:37;;;;;;;;;8.60;8.00;;;;;18.93;71.03;99149.06;6239957;27;97012;-68
2023/06/12 05:40:42;;;;;;;;;7.00;7.00;;;;;19.08;67.09;99154.56;6241002;27;96872;-68
2023/06/12 05:43:46;;;;;;;;;8.00;8.00;;;;;19.09;65.72;99149.91;6260848;27;96303;-69
2023/06/12 05:46:51;;;;;;;;;7.00;7.00;;;;;19.01;65.37;99151.25;6259970;27;97213;-69
2023/06/12 05:49:55;;;;;;;;;5.60;5.60;;;;;18.91;63.89;99149.31;6260805;27;96637;-68
2023/06/12 05:52:59;;;;;;;;;5.25;5.25;;;;;19.23;64.64;99151.03;6243810;27;99113;-68
2023/06/12 05:56:04;;;;;;;;;6.80;6.00;;;;;19.48;63.03;99144.78;6260857;27;96823;-68
2023/06/12 05:59:10;;;;;;;;;6.00;6.00;;;;;19.70;61.37;99151.63;6262311;27;96270;-68
2023/06/12 06:02:15;;;;;;;;;6.00;6.00;;;;;19.93;60.85;99154.88;6234954;27;99101;-68
2023/06/12 06:05:19;;;;;;;;;7.60;7.00;;;;;20.02;59.95;99148.56;6218526;28;96623;-68
2023/06/12 06:08:22;;;;;;;;;5.60;5.00;;;;;20.21;57.54;99154.28;6252651;27;97003;-70
2023/06/12 06:11:28;;;;;;;;;6.00;5.20;;;;;19.75;50.63;99159.00;6259863;27;96442;-70
2023/06/12 06:14:33;;;;;;;;;6.40;6.40;;;;;19.77;53.44;99165.03;6264449;27;96425;-68
2023/06/12 06:17:37;;;;;;;;;6.00;6.00;;;;;19.46;49.75;99161.47;6238917;27;96418;-69
2023/06/12 06:20:41;;;;;;;;;6.00;6.00;;;;;19.43;51.37;99170.19;6238257;28;96456;-71
2023/06/12 06:23:45;;;;;;;;;3.60;3.00;;;;;19.50;50.46;99164.50;6239005;28;96201;-70
2023/06/12 06:26:51;;;;;;;;;5.00;5.00;;;;;19.49;49.54;99166.41;6239466;28;96754;-70
2023/06/12 06:29:55;;;;;;;;;6.00;6.00;;;;;19.42;52.17;99157.59;6239667;28;96215;-70
2023/06/12 06:32:58;;;;;;;;;6.00;6.00;;;;;19.56;50.33;99150.53;6220628;28;97953;-70
2023/06/12 06:36:02;;;;;;;;;5.80;5.80;;;;;19.53;49.30;99156.56;6238439;28;96302;-70
2023/06/12 06:39:06;;;;;;;;;4.60;4.60;;;;;19.72;50.30;99157.66;6237270;27;96398;-70
2023/06/12 06:42:11;;;;;;;;;5.25;5.25;;;;;20.08;52.18;99174.03;6236630;28;96960;-69
2023/06/12 06:45:27;;;;;;;;;6.00;6.00;;;;;20.11;48.46;99146.91;6237198;28;96840;-68
2023/06/12 06:48:30;;;;;;;;;5.50;5.50;;;;;20.48;47.00;99173.09;6238293;28;96228;-68
2023/06/12 06:51:34;;;;;;;;;4.20;4.20;;;;;20.42;48.08;99166.03;6222414;28;96611;-68
2023/06/12 06:54:38;;;;;;;;;6.00;5.00;;;;;20.30;45.34;99160.81;6237900;28;97238;-68
2023/06/12 06:57:43;;;;;;;;;7.00;6.00;;;;;20.08;45.74;99163.91;6239702;27;97193;-70
2023/06/12 07:00:46;;;;;;;;;6.60;6.00;;;;;20.12;46.69;99180.59;6238969;28;96699;-69
2023/06/12 07:03:50;;;;;;;;;7.00;7.00;;;;;20.28;46.73;99177.50;6222376;28;98358;-71
2023/06/12 07:06:55;;;;;;;;;6.00;6.00;;;;;19.71;46.52;99160.63;6239024;28;96202;-72
2023/06/12 07:09:59;;;;;;;;;6.80;6.80;;;;;20.28;50.19;99171.25;6238511;28;96459;-71
2023/06/12 07:13:04;;;;;;;;;7.00;7.00;;;;;20.66;50.48;99167.03;6237840;28;96828;-72
2023/06/12 07:16:13;;;;;;;;;8.00;6.80;;;;;20.89;47.64;99168.28;6221382;28;98438;-71
2023/06/12 07:19:17;;;;;;;;;7.60;7.00;;;;;21.11;46.84;99171.47;6237100;28;96483;-70
2023/06/12 07:22:20;;;;;;;;;8.00;7.00;;;;;21.40;46.85;99172.41;6221566;28;96795;-72
2023/06/12 07:25:24;;;;;;;;;9.00;9.00;;;;;21.72;45.44;99171.03;6237156;28;96920;-71
2023/06/12 07:28:30;;;;;;;;;7.40;7.40;;;;;22.03;44.40;99167.78;6238373;28;96910;-71
2023/06/12 07:31:33;;;;;;;;;5.00;5.00;;;;;22.20;43.16;99178.28;6238506;28;96449;-71
2023/06/12 07:34:38;;;;;;;;;5.60;5.60;;;;;22.17;43.36;99172.56;6236516;28;96230;-70
2023/06/12 07:37:42;;;;;;;;;7.00;7.00;;;;;22.38;43.41;99160.25;6236095;28;96626;-70
2023/06/12 07:40:46;;;;;;;;;4.00;4.00;;;;;22.63;43.63;99159.13;6235814;28;96502;-71
2023/06/12 07:43:51;;;;;;;;;5.00;4.00;;;;;22.56;40.15;99169.66;6219078;28;98626;-71
2023/06/12 07:46:55;;;;;;;;;6.75;6.75;;;;;22.62;40.37;99174.00;6236175;28;96261;-71
2023/06/12 07:49:59;;;;;;;;;7.00;6.75;;;;;22.88;41.30;99173.38;6220704;28;96683;-71
2023/06/12 07:53:08;;;;;;;;;6.00;5.00;;;;;23.22;40.77;99180.63;6238010;28;96373;-72
2023/06/12 07:56:32;;;;;;;;;5.00;4.00;;;;;23.53;39.13;99168.06;6221139;28;96998;-71
2023/06/12 07:59:38;;;;;;;;;6.20;5.20;;;;;23.64;37.72;99169.56;6238121;28;96293;-71
2023/06/12 08:02:43;;;;;;;;;5.00;5.00;;;;;24.01;37.80;99171.38;6237953;28;96413;-71
2023/06/12 08:05:47;;;;;;;;;4.00;4.00;;;;;24.28;35.41;99156.88;6237489;28;96324;-72
2023/06/12 08:08:52;;;;;;;;;7.00;6.00;;;;;24.22;37.53;99166.34;6238564;27;96804;-73
2023/06/12 08:11:56;;;;;;;;;5.00;5.00;;;;;23.96;36.55;99171.47;6220645;28;96625;-72
2023/06/12 08:15:01;;;;;;;;;5.00;5.00;;;;;24.13;36.00;99181.94;6237409;28;96332;-72
2023/06/12 08:18:04;;;;;;;;;4.80;4.00;;;;;24.22;36.85;99171.03;6220875;28;98404;-72
2023/06/12 08:21:08;;;;;;;;;4.40;4.40;;;;;24.04;34.18;99162.50;6237145;28;96471;-72
2023/06/12 08:24:13;;;;;;;;;4.00;4.00;;;;;24.05;33.72;99164.16;6237703;28;96385;-72
2023/06/12 08:27:17;;;;;;;;;4.00;4.00;;;;;24.22;33.71;99171.88;6237450;28;96331;-71
2023/06/12 08:30:22;;;;;;;;;5.00;5.00;;;;;24.25;32.24;99162.97;6236688;28;96367;-72
2023/06/12 08:33:26;;;;;;;;;4.20;4.00;;;;;23.96;31.30;99170.66;6220422;28;96529;-72
2023/06/12 08:36:31;;;;;;;;;6.00;5.00;;;;;23.80;31.52;99172.84;6235258;27;97433;-72
2023/06/12 08:39:34;;;;;;;;;3.00;3.00;;;;;23.92;32.53;99166.88;6235896;28;96824;-72
2023/06/12 08:42:38;;;;;;;;;4.75;4.75;;;;;24.12;33.04;99161.81;6218668;28;99007;-72
2023/06/12 08:45:47;;;;;;;;;4.00;4.00;;;;;24.15;31.94;99166.72;6236528;27;96298;-72
2023/06/12 08:48:51;;;;;;;;;6.00;6.00;;;;;24.03;33.10;99165.59;6236061;28;96801;-72
2023/06/12 08:51:55;;;;;;;;;5.00;5.00;;;;;24.01;31.92;99171.38;6233447;28;96868;-72
2023/06/12 08:54:59;;;;;;;;;3.00;3.00;;;;;24.04;33.59;99169.97;6237084;27;96383;-71
2023/06/12 08:58:03;;;;;;;;;4.00;4.00;;;;;24.17;32.07;99164.50;6236002;28;97535;-72
2023/06/12 09:01:12;;;;;;;;;3.00;3.00;;;;;24.29;31.13;99154.94;6235737;28;97430;-72
2023/06/12 09:04:26;;;;;;;;;5.00;4.00;;;;;24.50;31.19;99156.97;6232997;28;96410;-70
2023/06/12 09:07:33;;;;;;;;;3.40;3.40;;;;;24.82;31.31;99155.22;6234978;28;96273;-71
2023/06/12 09:10:38;;;;;;;;;3.00;3.00;;;;;24.67;31.49;99155.56;6233446;28;97250;-71
2023/06/12 09:13:42;;;;;;;;;4.00;4.00;;;;;25.00;30.28;99162.59;6236479;27;96284;-73
2023/06/12 09:16:49;;;;;;;;;3.00;3.00;;;;;25.13;29.44;99155.38;6219819;28;97093;-73
2023/06/12 09:19:52;;;;;;;;;3.00;3.00;;;;;24.99;29.96;99163.69;6235207;28;96722;-72
2023/06/12 09:22:58;;;;;;;;;4.00;4.00;;;;;24.81;31.04;99157.19;6237810;27;96236;-73
2023/06/12 09:26:11;;;;;;;;;5.00;4.67;;;;;25.09;29.33;99162.66;6237957;27;96611;-73
2023/06/12 09:29:18;;;;;;;;;3.00;3.00;;;;;24.89;29.50;99167.50;6237266;28;97396;-72
2023/06/12 09:32:29;;;;;;;;;3.00;3.00;;;;;24.66;28.27;99157.50;6235934;27;96824;-72
2023/06/12 09:35:33;;;;;;;;;4.00;4.00;;;;;24.73;29.52;99165.34;6236694;27;96390;-73
2023/06/12 09:38:37;;;;;;;;;3.80;3.00;;;;;25.11;30.03;99165.94;6237548;27;96860;-73
2023/06/12 09:42:00;;;;;;;;;2.40;2.00;;;;;24.95;27.80;99151.66;6236002;27;96771;-74
2023/06/12 09:45:11;;;;;;;;;5.00;5.00;;;;;25.18;28.66;99153.34;6235897;27;96655;-71
2023/06/12 09:48:17;;;;;;;;;3.80;3.20;;;;;25.43;29.77;99143.63;6241447;27;96540;-70
2023/06/12 09:51:23;;;;;;;;;6.00;5.00;;;;;25.42;27.89;99142.00;6241589;27;96610;-72
2023/06/12 09:54:46;;;;;;;;;3.60;3.60;;;;;25.34;28.11;99140.81;6241332;28;96272;-70
2023/06/12 09:57:51;;;;;;;;;4.60;4.00;;;;;25.76;27.68;99142.28;6223647;28;96677;-71
2023/06/12 10:00:55;;;;;;;;;4.00;4.00;;;;;25.42;26.19;99142.81;6239867;28;99681;-69
2023/06/12 10:04:02;;;;;;;;;5.00;4.00;;;;;25.55;27.94;99141.19;6239840;28;96791;-70
2023/06/12 10:07:12;;;;;;;;;5.00;5.00;;;;;25.56;27.85;99142.78;6240123;28;96926;-70
2023/06/12 10:10:16;;;;;;;;;2.20;2.20;;;;;26.08;27.96;99135.66;6241332;28;97647;-70
2023/06/12 10:13:20;;;;;;;;;5.50;4.00;;;;;26.26;25.70;99125.50;6240155;27;98453;-70
2023/06/12 10:16:25;;;;;;;;;3.00;3.00;;;;;26.54;26.07;99131.63;6241254;27;96618;-71
2023/06/12 10:19:32;;;;;;;;;4.00;4.00;;;;;26.68;25.36;99124.84;6239491;28;96503;-70
2023/06/12 10:22:36;;;;;;;;;3.00;3.00;;;;;26.74;24.39;99112.50;6223153;28;98552;-70
2023/06/12 10:25:40;;;;;;;;;4.33;4.00;;;;;26.73;25.46;99110.06;6240664;27;96350;-71
2023/06/12 10:28:43;;;;;;;;;3.00;3.00;;;;;26.21;26.35;99109.03;6240804;27;96427;-70
2023/06/12 10:31:46;;;;;;;;;5.00;4.00;;;;;25.99;26.32;99112.69;6241059;27;96470;-70
2023/06/12 10:34:54;;;;;;;;;3.00;3.00;;;;;26.13;26.03;99096.84;6222976;28;97934;-71
2023/06/12 10:37:58;;;;;;;;;3.75;3.00;;;;;26.02;25.31;99119.53;6238120;28;96837;-70
2023/06/12 10:41:01;;;;;;;;;4.20;4.20;;;;;25.98;25.00;99110.25;6238751;28;98508;-72
2023/06/12 10:44:47;;;;;;;;;5.00;5.00;;;;;26.13;26.15;99105.13;6239469;27;96574;-71
2023/06/12 10:48:17;;;;;;;;;4.00;3.00;;;;;26.32;24.16;99093.84;6192878;28;96305;-71
2023/06/12 10:51:35;;;;;;;;;5.00;5.00;;;;;26.61;25.97;99109.88;6233156;28;96874;-71
2023/06/12 10:54:38;;;;;;;;;5.00;5.00;;;;;26.39;24.62;99108.00;6238674;28;96331;-70
2023/06/12 10:57:48;;;;;;;;;4.00;4.00;;;;;26.67;25.92;99095.56;6220903;28;98411;-70
2023/06/12 11:00:53;;;;;;;;;4.40;3.40;;;;;26.85;24.76;99099.16;6241257;27;96845;-69
2023/06/12 11:03:57;;;;;;;;;5.00;4.00;;;;;26.49;24.98;99082.00;6227314;27;98547;-69
2023/06/12 11:07:03;;;;;;;;;2.00;1.00;;;;;26.27;24.98;99088.47;6242831;27;97022;-70
2023/06/12 11:10:11;;;;;;;;;2.60;2.60;;;;;26.24;25.58;99069.75;6233135;27;99090;-70
2023/06/12 11:13:15;;;;;;;;;3.00;2.80;;;;;26.54;26.86;99079.91;6241099;27;97269;-69
2023/06/12 11:16:21;;;;;;;;;5.00;4.00;;;;;26.66;24.13;99080.09;6229632;27;97187;-70
2023/06/12 11:19:28;;;;;;;;;3.75;3.00;;;;;26.64;24.11;99078.78;6226309;27;96754;-70
2023/06/12 11:22:33;;;;;;;;;4.00;4.00;;;;;26.84;25.63;99078.16;6243963;27;96762;-70
2023/06/12 11:25:43;;;;;;;;;4.20;4.20;;;;;26.90;25.65;99071.38;6237253;27;96588;-70
2023/06/12 11:28:46;;;;;;;;;3.80;3.40;;;;;26.92;25.58;99060.00;6221366;28;97079;-69
2023/06/12 11:31:51;;;;;;;;;4.00;4.00;;;;;26.69;25.08;99040.72;6234818;28;97047;-70
2023/06/12 11:34:54;;;;;;;;;5.00;5.00;;;;;26.81;25.28;99058.66;6223072;28;97513;-70
2023/06/12 11:37:59;;;;;;;;;4.00;4.00;;;;;26.82;24.23;99046.44;6236227;27;98447;-70
2023/06/12 11:41:09;;;;;;;;;4.00;4.00;;;;;26.60;25.14;99034.38;6237266;28;97526;-70
2023/06/12 11:44:16;;;;;;;;;4.00;3.60;;;;;26.67;24.29;99039.44;6237668;27;96931;-71
2023/06/12 11:47:20;;;;;;;;;4.00;4.00;;;;;26.18;24.63;99035.06;6237711;28;96677;-71
2023/06/12 11:50:27;;;;;;;;;2.40;2.40;;;;;26.20;24.51;99038.31;6238203;28;96987;-71
2023/06/12 11:53:32;;;;;;;;;5.00;4.00;;;;;26.51;25.52;99039.09;6254605;27;96827;-71
2023/06/12 11:56:41;;;;;;;;;4.80;4.80;;;;;27.15;25.86;99033.78;6241281;27;98559;-71
2023/06/12 11:59:48;;;;;;;;;4.80;4.00;;;;;27.27;23.81;99038.66;6247476;27;96694;-71
2023/06/12 12:02:53;;;;;;;;;5.00;5.00;;;;;27.14;24.15;99032.97;6230092;27;96288;-71
2023/06/12 12:05:56;;;;;;;;;5.40;5.00;;;;;27.15;24.67;99033.78;6238443;28;96286;-70
2023/06/12 12:09:02;;;;;;;;;5.00;5.00;;;;;26.71;24.51;99041.22;6236818;27;96660;-70
2023/06/12 12:12:10;;;;;;;;;3.00;3.00;;;;;26.37;25.43;99041.16;6223267;28;96827;-70
2023/06/12 12:15:15;;;;;;;;;3.00;3.00;;;;;26.16;25.58;99024.34;6237363;27;97118;-70
2023/06/12 12:18:19;;;;;;;;;3.60;3.00;;;;;26.52;27.12;99018.59;6238124;27;96786;-70
2023/06/12 12:21:24;;;;;;;;;4.75;3.75;;;;;26.52;25.98;99018.59;6241585;27;96823;-69
2023/06/12 12:24:36;;;;;;;;;4.60;4.60;;;;;26.70;26.29;99023.00;6243333;27;96388;-69
2023/06/12 12:27:40;;;;;;;;;6.60;6.40;;;;;26.60;24.97;99014.22;6238518;28;96229;-69
2023/06/12 12:30:43;;;;;;;;;7.00;7.00;;;;;26.67;24.86;99033.91;6237247;28;97880;-71
2023/06/12 12:33:46;;;;;;;;;4.20;3.80;;;;;26.43;25.23;99020.53;6237925;27;97328;-70
2023/06/12 12:36:50;;;;;;;;;7.75;6.75;;;;;26.10;25.78;99027.56;6224767;27;96762;-70
2023/06/12 12:39:55;;;;;;;;;8.00;7.00;;;;;25.86;25.10;99026.00;6237820;27;97405;-70
2023/06/12 12:42:58;;;;;;;;;4.50;4.50;;;;;26.12;25.03;99017.81;6211917;28;98451;-70
2023/06/12 12:46:02;;;;;;;;;4.50;4.50;;;;;26.51;26.04;99008.66;6238328;27;97024;-70
2023/06/12 12:49:05;;;;;;;;;6.00;6.00;;;;;26.68;24.80;99010.66;6246480;27;96433;-70
2023/06/12 12:52:08;;;;;;;;;4.80;4.20;;;;;26.57;25.41;99006.56;6219975;28;98584;-70
2023/06/12 12:55:20;;;;;;;;;4.00;4.00;;;;;26.82;24.97;99004.97;6236469;28;99032;-70
2023/06/12 12:58:24;;;;;;;;;4.00;3.50;;;;;27.01;25.17;99003.50;6249138;27;96626;-70
2023/06/12 13:01:28;;;;;;;;;4.00;4.00;;;;;26.67;24.03;98998.78;6257025;27;96514;-70
2023/06/12 13:04:31;;;;;;;;;4.00;4.00;;;;;26.93;25.38;99003.50;6242901;27;96563;-70
2023/06/12 13:07:37;;;;;;;;;4.00;4.00;;;;;27.25;24.06;98997.47;6215747;28;98875;-69
2023/06/12 13:10:43;;;;;;;;;3.00;3.00;;;;;27.49;24.05;98996.94;6236203;28;96600;-69
2023/06/12 13:13:46;;;;;;;;;6.00;6.00;;;;;27.29;22.78;98986.53;6235315;28;96659;-70
2023/06/12 13:16:50;;;;;;;;;5.40;5.40;;;;;27.44;23.94;98989.59;6236917;27;98020;-70
2023/06/12 13:19:54;;;;;;;;;4.80;4.80;;;;;27.58;23.33;98989.41;6235573;28;96663;-70
2023/06/12 13:22:57;;;;;;;;;5.00;4.80;;;;;27.53;22.63;98995.13;6197625;28;96530;-70
2023/06/12 13:26:02;;;;;;;;;5.00;5.00;;;;;27.23;23.09;98987.84;6237605;27;96915;-70
2023/06/12 13:29:05;;;;;;;;;4.00;4.00;;;;;27.14;23.87;98982.31;6254116;27;97145;-70
2023/06/12 13:32:09;;;;;;;;;3.00;3.00;;;;;26.70;22.79;98987.06;6244048;27;96577;-70
2023/06/12 13:35:13;;;;;;;;;3.00;3.00;;;;;26.25;23.10;98985.69;6235017;28;98113;-70
2023/06/12 13:38:16;;;;;;;;;3.00;3.00;;;;;26.10;24.12;98986.09;6233506;28;96683;-70
2023/06/12 13:41:21;;;;;;;;;3.80;3.80;;;;;26.08;24.39;98978.16;6239974;27;98516;-70
2023/06/12 13:44:24;;;;;;;;;4.00;4.00;;;;;26.37;24.65;98974.00;6243589;27;96566;-70
2023/06/12 13:47:28;;;;;;;;;3.40;3.40;;;;;26.81;24.68;98983.97;6234762;28;98476;-70
2023/06/12 13:50:31;;;;;;;;;5.00;5.00;;;;;26.55;24.88;98975.66;6235763;28;97597;-70
2023/06/12 13:53:34;;;;;;;;;4.00;3.40;;;;;26.46;24.34;98977.59;6243911;27;96836;-70
2023/06/12 13:56:39;;;;;;;;;4.00;4.00;;;;;26.08;24.72;98980.91;6241366;27;96925;-70
2023/06/12 13:59:42;;;;;;;;;2.00;2.00;;;;;25.92;25.30;98990.78;6236113;27;96442;-70
2023/06/12 14:02:46;;;;;;;;;3.00;3.00;;;;;25.71;26.03;98985.00;6219644;27;96580;-70
2023/06/12 14:05:49;;;;;;;;;4.20;4.00;;;;;25.79;26.69;98973.19;6211938;28;96744;-70
2023/06/12 14:08:54;;;;;;;;;5.00;5.00;;;;;26.08;26.35;98975.41;6209699;28;96621;-70
2023/06/12 14:11:59;;;;;;;;;5.40;5.00;;;;;26.37;26.52;98974.00;6241948;27;96697;-70
2023/06/12 14:15:04;;;;;;;;;4.00;4.00;;;;;26.45;25.20;98975.97;6258823;27;96637;-70
2023/06/12 14:18:08;;;;;;;;;6.00;5.40;;;;;26.29;25.28;98973.66;6254494;27;97448;-70
2023/06/12 14:21:11;;;;;;;;;3.00;2.25;;;;;26.40;25.30;98967.81;6238313;27;96410;-70
2023/06/12 14:24:15;;;;;;;;;4.00;4.00;;;;;26.36;26.15;98962.13;6234709;28;98386;-70
2023/06/12 14:27:39;;;;;;;;;4.40;4.40;;;;;26.25;25.79;98971.88;6235800;28;97062;-69